createdAt,value
2018-12-15T00:00:21.059Z,2.94
2018-12-15T00:01:22.720Z,2.92
2018-12-15T00:02:23.331Z,2.92
2018-12-15T00:03:23.968Z,2.91
2018-12-15T00:04:24.564Z,2.97
2018-12-15T00:05:26.228Z,2.88
2018-12-15T00:06:26.834Z,2.95
2018-12-15T00:07:28.513Z,2.95
2018-12-15T00:08:29.107Z,2.94
2018-12-15T00:09:29.741Z,2.92
2018-12-15T00:10:30.340Z,2.97
2018-12-15T00:11:32.008Z,2.95
2018-12-15T00:12:32.609Z,2.92
2018-12-15T00:13:34.276Z,2.95
2018-12-15T00:14:34.860Z,2.91
2018-12-15T00:15:51.080Z,2.98
2018-12-15T00:16:51.681Z,2.97
2018-12-15T00:18:07.161Z,3.03
2018-12-15T00:19:07.795Z,2.97
2018-12-15T00:20:08.401Z,2.92
2018-12-15T00:21:09.006Z,2.95
2018-12-15T00:22:26.536Z,2.89
2018-12-15T00:23:27.138Z,2.81
2018-12-15T00:24:44.579Z,2.92
2018-12-15T00:25:45.167Z,2.89
2018-12-15T00:26:47.891Z,2.97
2018-12-15T00:27:48.601Z,2.92
2018-12-15T00:28:49.332Z,2.98
2018-12-15T00:29:49.921Z,2.98
2018-12-15T00:30:57.512Z,2.92
2018-12-15T00:31:58.122Z,2.91
2018-12-15T00:33:06.540Z,2.87
2018-12-15T00:34:07.153Z,2.85
2018-12-15T00:35:14.612Z,2.94
2018-12-15T00:36:15.183Z,2.88
2018-12-15T00:37:24.589Z,2.91
2018-12-15T00:38:25.195Z,2.92
2018-12-15T00:39:40.582Z,2.95
2018-12-15T00:40:41.189Z,2.92
2018-12-15T00:41:56.576Z,2.94
2018-12-15T00:42:57.186Z,2.92
2018-12-15T00:43:57.815Z,2.94
2018-12-15T00:44:58.407Z,2.81
2018-12-15T00:46:01.126Z,2.97
2018-12-15T00:47:01.704Z,2.89
2018-12-15T00:48:11.047Z,2.91
2018-12-15T00:49:11.636Z,2.94
2018-12-15T00:50:12.289Z,2.95
2018-12-15T00:51:12.884Z,2.95
2018-12-15T00:52:34.504Z,2.94
2018-12-15T00:53:35.094Z,2.97
2018-12-15T00:54:35.760Z,2.94
2018-12-15T00:55:36.595Z,2.94
2018-12-15T00:56:52.047Z,2.94
2018-12-15T00:57:52.672Z,2.94
2018-12-15T00:58:55.339Z,2.94
2018-12-15T00:59:55.947Z,2.95
2018-12-15T01:00:58.640Z,2.95
2018-12-15T01:01:59.401Z,2.94
2018-12-15T01:03:01.130Z,2.94
2018-12-15T01:04:01.717Z,2.94
2018-12-15T01:05:04.404Z,2.98
2018-12-15T01:06:05.005Z,2.92
2018-12-15T01:07:13.545Z,2.88
2018-12-15T01:08:14.132Z,2.92
2018-12-15T01:09:23.581Z,2.94
2018-12-15T01:10:24.180Z,2.89
2018-12-15T01:11:32.597Z,2.92
2018-12-15T01:12:33.352Z,2.94
2018-12-15T01:13:35.981Z,2.91
2018-12-15T01:14:36.597Z,2.98
2018-12-15T01:15:45.113Z,2.88
2018-12-15T01:16:45.708Z,2.94
2018-12-15T01:18:02.016Z,2.92
2018-12-15T01:19:02.620Z,2.95
2018-12-15T01:20:18.109Z,2.94
2018-12-15T01:21:18.708Z,2.92
2018-12-15T01:22:19.365Z,2.92
2018-12-15T01:23:19.837Z,2.95
2018-12-15T01:25:39.706Z,2.95
2018-12-15T01:26:41.389Z,2.95
2018-12-15T01:27:42.012Z,3.00
2018-12-15T01:29:03.622Z,2.95
2018-12-15T01:30:04.226Z,2.95
2018-12-15T01:31:20.535Z,2.92
2018-12-15T01:32:21.138Z,3.00
2018-12-15T01:33:30.590Z,2.92
2018-12-15T01:34:31.188Z,2.94
2018-12-15T01:35:40.527Z,2.98
2018-12-15T01:36:41.133Z,2.92
2018-12-15T01:39:01.392Z,2.94
2018-12-15T01:41:12.179Z,3.00
2018-12-15T01:42:19.581Z,2.95
2018-12-15T01:43:20.204Z,2.89
2018-12-15T01:44:35.559Z,2.95
2018-12-15T01:45:36.194Z,2.94
2018-12-15T01:46:38.862Z,2.94
2018-12-15T01:47:39.460Z,2.92
2018-12-15T01:49:02.216Z,2.95
2018-12-15T01:50:02.796Z,3.00
2018-12-15T01:51:04.489Z,2.94
2018-12-15T01:52:05.087Z,2.95
2018-12-15T01:54:18.217Z,3.00
2018-12-15T01:55:18.859Z,3.00
2018-12-15T01:56:19.449Z,2.91
2018-12-15T01:57:49.077Z,2.89
2018-12-15T01:58:49.683Z,2.89
2018-12-15T01:59:51.340Z,2.92
2018-12-15T02:00:51.916Z,2.87
2018-12-15T02:01:54.524Z,2.91
2018-12-15T02:02:55.124Z,2.87
2018-12-15T02:04:03.547Z,2.89
2018-12-15T02:05:04.144Z,3.00
2018-12-15T02:06:06.906Z,2.79
2018-12-15T02:07:07.486Z,2.84
2018-12-15T02:08:08.179Z,2.81
2018-12-15T02:09:08.775Z,2.84
2018-12-15T02:10:09.425Z,2.92
2018-12-15T02:11:10.015Z,2.88
2018-12-15T02:12:10.662Z,2.88
2018-12-15T02:13:11.268Z,2.79
2018-12-15T02:14:11.950Z,2.81
2018-12-15T02:15:12.534Z,2.79
2018-12-15T02:16:13.166Z,2.87
2018-12-15T02:17:14.029Z,2.84
2018-12-15T02:18:14.688Z,2.77
2018-12-15T02:19:15.300Z,2.84
2018-12-15T02:20:15.931Z,2.81
2018-12-15T02:21:16.546Z,2.82
2018-12-15T02:22:17.199Z,2.87
2018-12-15T02:23:17.774Z,2.81
2018-12-15T02:24:18.423Z,2.92
2018-12-15T02:25:19.010Z,2.85
2018-12-15T02:26:19.609Z,2.88
2018-12-15T02:27:20.278Z,2.81
2018-12-15T02:28:20.874Z,2.89
2018-12-15T02:29:21.559Z,2.82
2018-12-15T02:30:22.113Z,2.77
2018-12-15T02:31:22.759Z,2.91
2018-12-15T02:32:23.371Z,2.81
2018-12-15T02:33:25.029Z,2.79
2018-12-15T02:34:25.635Z,2.77
2018-12-15T02:35:26.279Z,2.79
2018-12-15T02:36:26.872Z,2.77
2018-12-15T02:37:27.523Z,2.82
2018-12-15T02:38:28.123Z,2.81
2018-12-15T02:39:28.754Z,2.82
2018-12-15T02:40:29.385Z,2.81
2018-12-15T02:41:29.983Z,2.81
2018-12-15T02:42:30.926Z,2.79
2018-12-15T02:43:31.539Z,2.85
2018-12-15T02:44:32.266Z,2.81
2018-12-15T02:45:33.015Z,2.67
2018-12-15T02:46:33.715Z,2.77
2018-12-15T02:47:41.239Z,2.73
2018-12-15T02:48:34.960Z,2.74
2018-12-15T02:49:35.565Z,2.79
2018-12-15T02:50:36.206Z,2.82
2018-12-15T02:51:36.792Z,2.77
2018-12-15T02:52:37.468Z,2.82
2018-12-15T02:53:38.044Z,2.77
2018-12-15T02:54:38.694Z,2.87
2018-12-15T02:55:39.282Z,2.81
2018-12-15T02:56:39.935Z,2.77
2018-12-15T02:57:40.520Z,2.77
2018-12-15T02:58:41.173Z,2.85
2018-12-15T02:59:41.768Z,2.87
2018-12-15T03:00:42.426Z,2.77
2018-12-15T03:01:43.020Z,2.88
2018-12-15T03:02:43.661Z,2.77
2018-12-15T03:03:44.256Z,2.79
2018-12-15T03:04:44.894Z,2.82
2018-12-15T03:05:45.516Z,2.79
2018-12-15T03:06:46.146Z,2.77
2018-12-15T03:07:46.752Z,2.85
2018-12-15T03:08:47.339Z,2.88
2018-12-15T03:09:47.993Z,2.77
2018-12-15T03:10:48.606Z,2.87
2018-12-15T03:11:49.248Z,2.84
2018-12-15T03:12:49.852Z,2.88
2018-12-15T03:13:50.487Z,2.77
2018-12-15T03:14:51.330Z,2.84
2018-12-15T03:15:52.045Z,2.79
2018-12-15T03:16:52.627Z,2.82
2018-12-15T03:17:53.209Z,2.84
2018-12-15T03:18:53.889Z,2.79
2018-12-15T03:19:54.488Z,2.73
2018-12-15T03:20:55.136Z,2.77
2018-12-15T03:21:55.732Z,2.81
2018-12-15T03:22:56.377Z,2.76
2018-12-15T03:23:57.117Z,2.81
2018-12-15T03:24:57.717Z,2.82
2018-12-15T03:25:58.327Z,2.76
2018-12-15T03:26:58.955Z,2.84
2018-12-15T03:27:59.568Z,2.79
2018-12-15T03:29:00.200Z,2.77
2018-12-15T03:30:00.838Z,2.77
2018-12-15T03:31:01.443Z,2.76
2018-12-15T03:32:02.068Z,2.79
2018-12-15T03:33:02.661Z,2.82
2018-12-15T03:34:03.308Z,2.84
2018-12-15T03:35:03.924Z,2.81
2018-12-15T03:36:04.517Z,2.76
2018-12-15T03:37:07.237Z,2.71
2018-12-15T03:38:07.825Z,2.74
2018-12-15T03:39:08.458Z,2.67
2018-12-15T03:40:09.069Z,2.74
2018-12-15T03:41:12.687Z,2.77
2018-12-15T03:42:13.278Z,2.77
2018-12-15T03:43:13.913Z,2.81
2018-12-15T03:44:14.511Z,2.70
2018-12-15T03:45:15.265Z,2.81
2018-12-15T03:46:15.849Z,2.74
2018-12-15T03:47:17.521Z,2.77
2018-12-15T03:48:18.131Z,2.76
2018-12-15T03:49:18.715Z,2.71
2018-12-15T03:50:19.317Z,2.74
2018-12-15T03:51:20.007Z,2.73
2018-12-15T03:52:20.593Z,2.74
2018-12-15T03:53:21.252Z,2.73
2018-12-15T03:54:21.852Z,2.73
2018-12-15T03:55:22.596Z,2.70
2018-12-15T03:56:23.189Z,2.74
2018-12-15T03:57:23.771Z,2.76
2018-12-15T03:58:24.362Z,2.71
2018-12-15T03:59:24.962Z,2.70
2018-12-15T04:00:25.599Z,2.74
2018-12-15T04:01:26.234Z,2.73
2018-12-15T04:02:26.833Z,2.74
2018-12-15T04:03:27.423Z,2.71
2018-12-15T04:04:30.141Z,2.71
2018-12-15T04:05:30.744Z,2.59
2018-12-15T04:06:31.371Z,2.66
2018-12-15T04:07:31.969Z,2.71
2018-12-15T04:08:32.603Z,2.67
2018-12-15T04:09:33.210Z,2.71
2018-12-15T04:10:33.850Z,2.69
2018-12-15T04:11:34.434Z,2.67
2018-12-15T04:12:43.090Z,2.63
2018-12-15T04:13:43.679Z,2.66
2018-12-15T04:14:44.315Z,2.61
2018-12-15T04:15:44.928Z,2.70
2018-12-15T04:16:45.499Z,2.61
2018-12-15T04:17:46.105Z,2.69
2018-12-15T04:18:47.198Z,2.64
2018-12-15T04:19:47.796Z,2.67
2018-12-15T04:20:48.465Z,2.73
2018-12-15T04:21:49.053Z,2.67
2018-12-15T04:22:49.699Z,2.67
2018-12-15T04:23:50.285Z,2.69
2018-12-15T04:24:50.948Z,2.70
2018-12-15T04:25:51.543Z,2.64
2018-12-15T04:26:52.179Z,2.66
2018-12-15T04:27:52.772Z,2.67
2018-12-15T04:28:53.423Z,2.70
2018-12-15T04:29:54.009Z,2.77
2018-12-15T04:30:54.677Z,2.70
2018-12-15T04:31:55.253Z,2.69
2018-12-15T04:32:56.935Z,2.66
2018-12-15T04:33:57.529Z,2.76
2018-12-15T04:34:58.181Z,2.69
2018-12-15T04:35:58.763Z,2.73
2018-12-15T04:36:59.424Z,2.71
2018-12-15T04:38:00.021Z,2.74
2018-12-15T04:39:00.664Z,2.70
2018-12-15T04:40:01.247Z,2.73
2018-12-15T04:41:02.913Z,2.59
2018-12-15T04:42:03.517Z,2.73
2018-12-15T04:43:04.159Z,2.71
2018-12-15T04:44:04.751Z,2.67
2018-12-15T04:45:05.399Z,2.70
2018-12-15T04:46:05.992Z,2.70
2018-12-15T04:47:06.645Z,2.71
2018-12-15T04:48:11.020Z,2.70
2018-12-15T04:49:07.862Z,2.73
2018-12-15T04:50:08.454Z,2.70
2018-12-15T04:51:09.141Z,2.63
2018-12-15T04:52:09.718Z,2.73
2018-12-15T04:53:10.372Z,2.73
2018-12-15T04:54:10.961Z,2.69
2018-12-15T04:55:11.614Z,2.70
2018-12-15T04:56:12.214Z,2.73
2018-12-15T04:57:13.874Z,2.69
2018-12-15T04:58:14.472Z,2.70
2018-12-15T04:59:15.131Z,2.76
2018-12-15T05:00:15.711Z,2.69
2018-12-15T05:01:16.297Z,2.74
2018-12-15T05:02:16.916Z,2.71
2018-12-15T05:03:17.519Z,2.64
2018-12-15T05:04:19.176Z,2.56
2018-12-15T05:05:19.741Z,2.58
2018-12-15T05:06:20.395Z,2.63
2018-12-15T05:07:20.981Z,2.66
2018-12-15T05:08:21.576Z,2.67
2018-12-15T05:09:22.169Z,2.74
2018-12-15T05:10:22.759Z,2.58
2018-12-15T05:11:23.363Z,2.71
2018-12-15T05:12:24.022Z,2.67
2018-12-15T05:13:25.063Z,2.63
2018-12-15T05:14:25.692Z,2.64
2018-12-15T05:15:26.261Z,2.64
2018-12-15T05:16:26.837Z,2.59
2018-12-15T05:17:27.431Z,2.51
2018-12-15T05:18:28.135Z,2.55
2018-12-15T05:19:28.755Z,2.63
2018-12-15T05:20:30.422Z,2.46
2018-12-15T05:21:31.008Z,2.63
2018-12-15T05:22:31.654Z,2.61
2018-12-15T05:23:32.283Z,2.58
2018-12-15T05:24:32.899Z,2.58
2018-12-15T05:25:33.481Z,2.55
2018-12-15T05:26:35.173Z,2.46
2018-12-15T05:27:35.746Z,2.52
2018-12-15T05:28:36.390Z,2.45
2018-12-15T05:29:36.999Z,2.52
2018-12-15T05:30:37.592Z,2.53
2018-12-15T05:31:38.215Z,2.52
2018-12-15T05:32:38.891Z,2.55
2018-12-15T05:33:39.484Z,2.55
2018-12-15T05:34:40.128Z,2.49
2018-12-15T05:35:41.924Z,2.51
2018-12-15T05:36:42.596Z,2.61
2018-12-15T05:37:44.426Z,2.53
2018-12-15T05:38:44.981Z,2.53
2018-12-15T05:39:45.570Z,2.59
2018-12-15T05:40:46.212Z,2.58
2018-12-15T05:41:46.811Z,2.59
2018-12-15T05:42:47.464Z,2.63
2018-12-15T05:43:48.038Z,2.53
2018-12-15T05:44:48.714Z,2.63
2018-12-15T05:45:49.309Z,2.63
2018-12-15T05:46:49.937Z,2.63
2018-12-15T05:47:50.517Z,2.61
2018-12-15T05:48:51.134Z,2.63
2018-12-15T05:49:51.700Z,2.63
2018-12-15T05:50:52.418Z,2.69
2018-12-15T05:51:53.014Z,2.61
2018-12-15T05:52:53.657Z,2.56
2018-12-15T05:53:54.262Z,2.67
2018-12-15T05:54:54.953Z,2.61
2018-12-15T05:55:55.493Z,2.52
2018-12-15T05:56:56.140Z,2.59
2018-12-15T05:57:57.105Z,2.59
2018-12-15T05:58:57.785Z,2.66
2018-12-15T05:59:58.396Z,2.58
2018-12-15T06:00:59.030Z,2.63
2018-12-15T06:01:59.634Z,2.58
2018-12-15T06:03:00.272Z,2.52
2018-12-15T06:04:00.867Z,2.52
2018-12-15T06:05:01.525Z,2.48
2018-12-15T06:06:02.106Z,2.49
2018-12-15T06:07:02.695Z,2.49
2018-12-15T06:08:03.306Z,2.51
2018-12-15T06:09:03.892Z,2.56
2018-12-15T06:10:04.596Z,2.52
2018-12-15T06:11:05.108Z,2.49
2018-12-15T06:12:05.761Z,2.51
2018-12-15T06:13:06.355Z,2.51
2018-12-15T06:14:07.002Z,2.48
2018-12-15T06:15:07.601Z,2.49
2018-12-15T06:16:08.244Z,2.48
2018-12-15T06:17:08.844Z,2.45
2018-12-15T06:18:09.472Z,2.51
2018-12-15T06:19:10.071Z,2.45
2018-12-15T06:20:10.714Z,2.53
2018-12-15T06:21:11.334Z,2.52
2018-12-15T06:22:11.955Z,2.48
2018-12-15T06:23:12.561Z,2.52
2018-12-15T06:24:13.214Z,2.49
2018-12-15T06:25:13.804Z,2.44
2018-12-15T06:26:14.466Z,2.49
2018-12-15T06:27:15.036Z,2.49
2018-12-15T06:28:15.900Z,2.46
2018-12-15T06:29:16.491Z,2.55
2018-12-15T06:30:17.136Z,2.51
2018-12-15T06:31:17.733Z,2.48
2018-12-15T06:32:18.378Z,2.48
2018-12-15T06:33:18.968Z,2.51
2018-12-15T06:34:19.621Z,2.46
2018-12-15T06:35:20.214Z,2.51
2018-12-15T06:36:20.942Z,2.49
2018-12-15T06:37:21.594Z,2.49
2018-12-15T06:38:23.224Z,2.52
2018-12-15T06:39:23.834Z,2.49
2018-12-15T06:40:24.432Z,2.59
2018-12-15T06:41:25.605Z,2.52
2018-12-15T06:42:26.199Z,2.53
2018-12-15T06:43:26.954Z,2.52
2018-12-15T06:44:27.570Z,2.45
2018-12-15T06:45:28.192Z,2.55
2018-12-15T06:46:28.787Z,2.35
2018-12-15T06:47:29.437Z,2.46
2018-12-15T06:48:30.021Z,2.45
2018-12-15T06:49:30.662Z,2.45
2018-12-15T06:50:31.277Z,2.45
2018-12-15T06:51:31.909Z,2.35
2018-12-15T06:52:32.521Z,2.51
2018-12-15T06:53:33.155Z,2.45
2018-12-15T06:54:33.756Z,2.41
2018-12-15T06:55:34.346Z,2.35
2018-12-15T06:56:34.983Z,2.38
2018-12-15T06:57:35.561Z,2.31
2018-12-15T06:58:36.150Z,2.40
2018-12-15T06:59:36.775Z,2.44
2018-12-15T07:00:37.380Z,2.45
2018-12-15T07:01:38.016Z,2.46
2018-12-15T07:02:38.637Z,2.52
2018-12-15T07:03:39.255Z,2.48
2018-12-15T07:04:39.863Z,2.48
2018-12-15T07:05:40.518Z,2.48
2018-12-15T07:06:42.114Z,2.48
2018-12-15T07:07:41.682Z,2.48
2018-12-15T07:08:42.375Z,2.45
2018-12-15T07:09:42.980Z,2.56
2018-12-15T07:10:43.622Z,2.51
2018-12-15T07:11:44.203Z,2.45
2018-12-15T07:12:44.975Z,2.49
2018-12-15T07:13:45.551Z,2.48
2018-12-15T07:14:46.154Z,2.48
2018-12-15T07:15:46.927Z,2.44
2018-12-15T07:16:47.537Z,2.48
2018-12-15T07:17:48.276Z,2.45
2018-12-15T07:18:50.054Z,2.51
2018-12-15T07:19:49.453Z,2.41
2018-12-15T07:20:50.049Z,2.51
2018-12-15T07:21:50.751Z,2.51
2018-12-15T07:22:51.348Z,2.48
2018-12-15T07:23:52.107Z,2.51
2018-12-15T07:24:52.696Z,2.41
2018-12-15T07:25:53.289Z,2.46
2018-12-15T07:26:54.272Z,2.46
2018-12-15T07:27:54.882Z,2.46
2018-12-15T07:28:55.518Z,2.46
2018-12-15T07:29:56.149Z,2.48
2018-12-15T07:30:56.715Z,2.49
2018-12-15T07:31:57.377Z,2.48
2018-12-15T07:32:57.962Z,2.52
2018-12-15T07:33:58.627Z,2.59
2018-12-15T07:35:01.035Z,2.51
2018-12-15T07:35:59.872Z,2.49
2018-12-15T07:37:00.582Z,2.52
2018-12-15T07:38:01.164Z,2.52
2018-12-15T07:39:01.825Z,2.51
2018-12-15T07:40:02.539Z,2.52
2018-12-15T07:41:03.017Z,2.52
2018-12-15T07:42:03.683Z,2.52
2018-12-15T07:43:04.278Z,2.58
2018-12-15T07:44:04.954Z,2.59
2018-12-15T07:45:05.549Z,2.53
2018-12-15T07:46:06.172Z,2.61
2018-12-15T07:47:06.778Z,2.52
2018-12-15T07:48:07.412Z,2.51
2018-12-15T07:49:08.086Z,2.49
2018-12-15T07:50:08.765Z,2.48
2018-12-15T07:51:09.362Z,2.49
2018-12-15T07:52:11.050Z,2.49
2018-12-15T07:53:11.640Z,2.48
2018-12-15T07:54:12.376Z,2.49
2018-12-15T07:55:12.987Z,2.49
2018-12-15T07:56:13.587Z,2.45
2018-12-15T07:57:14.173Z,2.48
2018-12-15T07:58:15.784Z,2.53
2018-12-15T07:59:16.387Z,2.52
2018-12-15T08:00:17.034Z,2.49
2018-12-15T08:01:17.618Z,2.63
2018-12-15T08:02:18.290Z,2.58
2018-12-15T08:03:18.867Z,2.56
2018-12-15T08:04:21.565Z,2.56
2018-12-15T08:05:22.162Z,2.59
2018-12-15T08:06:23.216Z,2.48
2018-12-15T08:07:23.798Z,2.58
2018-12-15T08:08:26.808Z,2.53
2018-12-15T08:09:27.415Z,2.59
2018-12-15T08:10:28.004Z,2.55
2018-12-15T08:11:28.596Z,2.58
2018-12-15T08:12:29.212Z,2.63
2018-12-15T08:13:29.834Z,2.61
2018-12-15T08:14:30.420Z,2.67
2018-12-15T08:15:32.084Z,2.69
2018-12-15T08:16:32.676Z,2.69
2018-12-15T08:17:33.794Z,2.69
2018-12-15T08:18:36.544Z,2.66
2018-12-15T08:19:37.122Z,2.66
2018-12-15T08:20:37.732Z,2.71
2018-12-15T08:21:38.327Z,2.58
2018-12-15T08:22:38.989Z,2.70
2018-12-15T08:23:39.632Z,2.71
2018-12-15T08:24:40.212Z,2.64
2018-12-15T08:25:47.612Z,2.69
2018-12-15T08:26:48.205Z,2.71
2018-12-15T08:28:03.599Z,2.61
2018-12-15T08:29:04.198Z,2.71
2018-12-15T08:30:06.060Z,2.67
2018-12-15T08:31:06.481Z,2.59
2018-12-15T08:32:07.114Z,2.63
2018-12-15T08:33:07.709Z,2.61
2018-12-15T08:34:16.036Z,2.59
2018-12-15T08:35:16.637Z,2.48
2018-12-15T08:36:25.063Z,2.61
2018-12-15T08:37:25.660Z,2.58
2018-12-15T08:39:37.638Z,2.58
2018-12-15T08:40:38.327Z,2.69
2018-12-15T08:41:38.893Z,2.63
2018-12-15T08:42:46.090Z,2.61
2018-12-15T08:43:46.692Z,2.74
2018-12-15T08:45:03.110Z,2.52
2018-12-15T08:46:03.708Z,2.51
2018-12-15T08:47:05.380Z,2.51
2018-12-15T08:48:05.978Z,2.61
2018-12-15T08:49:13.584Z,2.59
2018-12-15T08:50:14.183Z,2.55
2018-12-15T08:51:35.931Z,2.61
2018-12-15T08:52:36.545Z,2.52
2018-12-15T08:53:44.161Z,2.51
2018-12-15T08:54:44.719Z,2.55
2018-12-15T08:56:00.105Z,2.48
2018-12-15T08:57:00.739Z,2.53
2018-12-15T08:58:02.416Z,2.48
2018-12-15T08:59:02.993Z,2.48
2018-12-15T09:00:10.643Z,2.58
2018-12-15T09:01:11.164Z,2.61
2018-12-15T09:02:11.828Z,2.58
2018-12-15T09:03:12.421Z,2.64
2018-12-15T09:04:19.620Z,2.56
2018-12-15T09:05:20.227Z,2.64
2018-12-15T09:06:36.630Z,2.64
2018-12-15T09:07:37.258Z,2.63
2018-12-15T09:08:37.976Z,2.66
2018-12-15T09:09:38.548Z,2.67
2018-12-15T09:10:39.165Z,2.69
2018-12-15T09:11:39.769Z,2.63
2018-12-15T09:12:40.374Z,2.70
2018-12-15T09:13:41.036Z,2.64
2018-12-15T09:14:41.661Z,2.66
2018-12-15T09:15:42.244Z,2.74
2018-12-15T09:16:42.874Z,2.67
2018-12-15T09:17:43.433Z,2.67
2018-12-15T09:18:44.041Z,2.76
2018-12-15T09:19:44.632Z,2.71
2018-12-15T09:20:45.229Z,2.71
2018-12-15T09:21:45.955Z,2.70
2018-12-15T09:22:46.554Z,2.73
2018-12-15T09:23:47.243Z,2.69
2018-12-15T09:24:47.845Z,2.71
2018-12-15T09:25:48.445Z,2.79
2018-12-15T09:26:49.042Z,2.84
2018-12-15T09:27:49.627Z,2.63
2018-12-15T09:28:50.233Z,2.70
2018-12-15T09:29:50.816Z,2.76
2018-12-15T09:30:51.430Z,2.70
2018-12-15T09:31:52.039Z,2.63
2018-12-15T09:32:52.620Z,2.74
2018-12-15T09:33:53.234Z,2.81
2018-12-15T09:34:53.808Z,2.71
2018-12-15T09:35:54.413Z,2.77
2018-12-15T09:36:55.011Z,2.77
2018-12-15T09:37:55.622Z,2.79
2018-12-15T09:38:56.231Z,2.87
2018-12-15T09:39:56.800Z,2.82
2018-12-15T09:40:57.398Z,2.81
2018-12-15T09:41:58.008Z,2.77
2018-12-15T09:51:15.656Z,2.94
2018-12-15T09:52:16.377Z,2.94
2018-12-15T09:53:18.063Z,2.97
2018-12-15T09:54:18.716Z,2.94
2018-12-15T09:55:19.386Z,2.91
2018-12-15T09:56:27.732Z,2.95
2018-12-15T09:57:28.362Z,2.97
2018-12-15T09:58:29.058Z,2.98
2018-12-15T09:59:30.019Z,3.02
2018-12-15T10:00:33.268Z,2.89
2018-12-15T10:01:33.918Z,2.98
2018-12-15T10:02:36.677Z,2.98
2018-12-15T10:03:37.353Z,2.95
2018-12-15T10:04:40.112Z,3.07
2018-12-15T10:05:40.762Z,3.00
2018-12-15T10:06:42.544Z,3.00
2018-12-15T10:07:43.172Z,3.00
2018-12-15T10:08:51.757Z,3.02
2018-12-15T10:09:52.460Z,2.91
2018-12-15T10:11:18.712Z,2.94
2018-12-15T10:12:19.361Z,2.91
2018-12-15T10:13:20.070Z,3.03
2018-12-15T10:14:20.650Z,3.03
2018-12-15T10:15:45.666Z,3.00
2018-12-15T10:16:46.326Z,2.94
2018-12-15T10:18:59.321Z,2.95
2018-12-15T10:20:28.702Z,2.97
2018-12-15T10:21:29.368Z,2.98
2018-12-15T10:22:44.725Z,3.10
2018-12-15T10:23:45.181Z,3.10
2018-12-15T10:25:01.724Z,3.06
2018-12-15T10:26:02.365Z,3.09
2018-12-15T10:27:03.043Z,3.06
2018-12-15T10:28:10.742Z,3.09
2018-12-15T10:29:11.379Z,2.98
2018-12-15T10:30:13.453Z,3.07
2018-12-15T10:31:13.755Z,2.91
2018-12-15T10:32:22.236Z,2.97
2018-12-15T10:33:22.881Z,3.00
2018-12-15T10:34:25.642Z,2.91
2018-12-15T10:35:26.298Z,3.03
2018-12-15T10:36:28.002Z,2.89
2018-12-15T10:37:28.664Z,2.98
2018-12-15T10:38:38.316Z,3.03
2018-12-15T10:39:38.893Z,3.02
2018-12-15T10:40:41.962Z,2.94
2018-12-15T10:41:42.589Z,2.92
2018-12-15T10:42:43.523Z,3.03
2018-12-15T10:43:44.149Z,2.95
2018-12-15T10:45:01.840Z,3.03
2018-12-15T10:46:02.477Z,3.07
2018-12-15T10:47:05.282Z,3.05
2018-12-15T10:48:05.944Z,3.00
2018-12-15T10:49:14.178Z,3.03
2018-12-15T10:50:14.795Z,3.10
2018-12-15T10:51:37.549Z,3.00
2018-12-15T10:52:38.209Z,3.05
2018-12-15T10:53:40.105Z,3.09
2018-12-15T10:54:40.536Z,3.09
2018-12-15T11:05:52.256Z,3.06
2018-12-15T11:06:52.978Z,3.03
2018-12-15T11:07:53.607Z,3.15
2018-12-15T11:08:54.276Z,3.21
2018-12-15T11:09:54.898Z,3.12
2018-12-15T11:10:55.660Z,3.06
2018-12-15T11:11:56.305Z,2.98
2018-12-15T11:12:56.942Z,2.97
2018-12-15T11:13:57.633Z,2.97
2018-12-15T11:14:58.246Z,3.03
2018-12-15T11:15:58.903Z,2.92
2018-12-15T11:16:59.544Z,3.00
2018-12-15T11:18:00.194Z,2.91
2018-12-15T11:19:00.857Z,2.89
2018-12-15T11:20:01.521Z,2.87
2018-12-15T11:21:02.155Z,2.77
2018-12-15T11:22:02.797Z,2.88
2018-12-15T11:24:22.015Z,2.92
2018-12-15T11:25:31.535Z,2.92
2018-12-15T11:26:32.191Z,3.00
2018-12-15T11:27:39.426Z,3.02
2018-12-15T11:28:40.089Z,3.09
2018-12-15T11:29:40.979Z,3.06
2018-12-15T11:30:41.632Z,2.95
2018-12-15T11:31:42.285Z,3.03
2018-12-15T11:32:42.940Z,2.95
2018-12-15T11:33:43.582Z,2.97
2018-12-15T11:34:44.236Z,2.88
2018-12-15T11:35:44.888Z,2.92
2018-12-15T11:36:45.530Z,2.91
2018-12-15T11:37:46.254Z,3.15
2018-12-15T11:38:46.921Z,3.03
2018-12-15T11:39:47.557Z,3.07
2018-12-15T11:40:48.582Z,2.94
2018-12-15T11:41:49.221Z,2.95
2018-12-15T11:42:49.973Z,2.97
2018-12-15T11:43:50.971Z,2.98
2018-12-15T11:44:51.622Z,2.94
2018-12-15T11:45:52.255Z,2.91
2018-12-15T11:46:52.979Z,2.87
2018-12-15T11:47:53.633Z,3.06
2018-12-15T11:48:54.291Z,2.91
2018-12-15T11:49:54.950Z,2.92
2018-12-15T11:50:55.622Z,3.00
2018-12-15T11:51:58.374Z,2.84
2018-12-15T11:52:58.994Z,2.88
2018-12-15T11:53:59.655Z,2.94
2018-12-15T11:55:00.414Z,2.82
2018-12-15T11:56:01.058Z,2.85
2018-12-15T11:57:01.751Z,2.77
2018-12-15T11:58:02.410Z,2.92
2018-12-15T11:59:05.249Z,2.97
2018-12-15T12:00:05.867Z,3.02
2018-12-15T12:01:13.530Z,2.97
2018-12-15T12:02:14.208Z,2.95
2018-12-15T12:03:14.987Z,2.94
2018-12-15T12:04:15.621Z,2.81
2018-12-15T12:05:16.273Z,2.77
2018-12-15T12:06:16.918Z,2.85
2018-12-15T12:07:17.580Z,2.88
2018-12-15T12:08:18.392Z,2.95
2018-12-15T12:09:19.032Z,2.97
2018-12-15T12:10:19.849Z,2.98
2018-12-15T12:11:20.491Z,2.82
2018-12-15T12:12:21.280Z,2.81
2018-12-15T12:13:21.965Z,2.85
2018-12-15T12:14:24.791Z,2.76
2018-12-15T12:15:25.432Z,2.84
2018-12-15T12:16:26.087Z,2.76
2018-12-15T12:17:26.800Z,2.76
2018-12-15T12:18:27.373Z,2.77
2018-12-15T12:19:28.002Z,3.03
2018-12-15T12:20:28.810Z,3.07
2018-12-15T12:21:29.459Z,2.97
2018-12-15T12:22:30.253Z,2.88
2018-12-15T12:23:31.019Z,2.95
2018-12-15T12:24:32.760Z,2.97
2018-12-15T12:25:33.376Z,2.94
2018-12-15T12:26:34.031Z,2.92
2018-12-15T12:27:35.814Z,2.94
2018-12-15T12:28:36.482Z,2.88
2018-12-15T12:29:37.278Z,2.97
2018-12-15T12:30:37.999Z,3.07
2018-12-15T12:31:39.768Z,3.02
2018-12-15T12:32:40.386Z,2.94
2018-12-15T12:33:42.545Z,2.85
2018-12-15T12:34:42.855Z,2.82
2018-12-15T12:35:43.517Z,2.84
2018-12-15T12:36:44.290Z,2.73
2018-12-15T12:37:44.958Z,2.98
2018-12-15T12:38:45.632Z,2.92
2018-12-15T12:39:46.274Z,2.97
2018-12-15T12:40:47.991Z,2.92
2018-12-15T12:41:48.643Z,2.89
2018-12-15T12:42:49.294Z,2.97
2018-12-15T12:43:49.968Z,2.94
2018-12-15T12:44:50.618Z,2.94
2018-12-15T12:45:51.317Z,2.92
2018-12-15T12:46:51.997Z,2.89
2018-12-15T12:47:52.639Z,2.94
2018-12-15T12:48:53.278Z,2.91
2018-12-15T12:49:56.929Z,2.95
2018-12-15T12:50:55.663Z,2.89
2018-12-15T12:51:57.433Z,2.98
2018-12-15T12:52:58.092Z,2.97
2018-12-15T12:54:19.832Z,2.95
2018-12-15T12:55:20.466Z,2.88
2018-12-15T12:56:27.910Z,2.77
2018-12-15T12:57:28.553Z,2.82
2018-12-15T12:58:29.249Z,2.82
2018-12-15T12:59:29.884Z,2.85
2018-12-15T13:00:45.451Z,2.79
2018-12-15T13:01:46.097Z,2.94
2018-12-15T13:03:58.059Z,2.95
2018-12-15T13:05:06.453Z,2.92
2018-12-15T13:06:07.115Z,2.95
2018-12-15T13:07:09.854Z,2.94
2018-12-15T13:08:10.489Z,2.87
2018-12-15T13:09:12.217Z,2.95
2018-12-15T13:10:12.860Z,2.94
2018-12-15T13:11:20.434Z,3.00
2018-12-15T13:12:21.067Z,2.91
2018-12-15T13:13:22.820Z,3.09
2018-12-15T13:14:23.463Z,2.94
2018-12-15T13:15:24.163Z,2.85
2018-12-15T13:16:24.794Z,2.84
2018-12-15T13:17:25.480Z,2.77
2018-12-15T13:18:26.125Z,2.94
2018-12-15T13:19:28.905Z,2.97
2018-12-15T13:20:29.533Z,2.92
2018-12-15T13:21:32.224Z,3.00
2018-12-15T13:22:32.900Z,3.00
2018-12-15T13:23:34.589Z,2.95
2018-12-15T13:24:35.270Z,2.94
2018-12-15T13:25:35.937Z,2.79
2018-12-15T13:26:36.582Z,2.81
2018-12-15T13:27:37.231Z,2.82
2018-12-15T13:28:37.890Z,2.84
2018-12-15T13:29:38.538Z,2.89
2018-12-15T13:30:39.243Z,2.74
2018-12-15T13:31:39.886Z,2.85
2018-12-15T13:32:40.625Z,2.91
2018-12-15T13:33:41.260Z,2.88
2018-12-15T13:34:41.953Z,2.79
2018-12-15T13:35:42.610Z,2.81
2018-12-15T13:36:43.275Z,2.81
2018-12-15T13:37:43.919Z,2.81
2018-12-15T13:38:44.577Z,2.70
2018-12-15T13:39:45.212Z,2.67
2018-12-15T13:40:45.965Z,2.69
2018-12-15T13:41:46.616Z,2.74
2018-12-15T13:42:47.303Z,2.69
2018-12-15T13:43:47.980Z,2.81
2018-12-15T13:44:48.660Z,2.73
2018-12-15T13:45:49.277Z,2.85
2018-12-15T13:46:56.893Z,2.84
2018-12-15T13:47:57.553Z,2.71
2018-12-15T13:48:58.327Z,2.66
2018-12-15T13:49:58.964Z,2.67
2018-12-15T13:50:59.654Z,2.70
2018-12-15T13:52:00.309Z,2.81
2018-12-15T13:53:01.018Z,2.69
2018-12-15T13:54:01.647Z,2.70
2018-12-15T13:55:02.372Z,2.71
2018-12-15T13:56:03.011Z,2.73
2018-12-15T13:57:04.720Z,2.69
2018-12-15T13:58:05.448Z,2.64
2018-12-15T13:59:06.065Z,2.53
2018-12-15T14:00:06.712Z,2.63
2018-12-15T14:01:16.409Z,2.76
2018-12-15T14:02:17.052Z,2.73
2018-12-15T14:03:25.439Z,2.61
2018-12-15T14:04:26.098Z,2.45
2018-12-15T14:06:03.433Z,2.48
2018-12-15T14:07:04.093Z,2.51
2018-12-15T14:08:11.447Z,2.52
2018-12-15T14:09:12.081Z,2.61
2018-12-15T14:10:13.835Z,2.63
2018-12-15T14:11:14.516Z,2.73